Thomaston, New York
Current Conditions -  °F | °C
As of 8:51 AM on Friday 31 Oct 2014 (Local Time) from KLGA Reporting Station
Overcast Overcast  
Wind Chill: 43°   Ceiling: 5000
Heat Index: 47°   Visibility: 10mi
Dew Point: 33°   Wind: 9mph
Humidity: 59%   Direction: 10°N
Pressure: 30.03"   Gusts: NA
Location:  40.786°N, 73.7291°W
Report Text: KLGA 311251Z 01008KT 10SM OVC050 08/01 A3003 RMK AO2 SLP168 T00830006
Loading
Personal Weather Stations






























Interactive Weather Map
Tropical Storm Tracking
New forecast layout! Learn more

10-Day Weather Forecast

Advertisements
Track Severe Weather on mobile